CAMK1: Grouse Creek nr Cameron KS

                                SHEF ID:       CAMK1     Grouse Creek nr Cameron KS
STATION TYPE:

PRECIP STAGE RIV-FLOW VOLTAGE BAT-LOAD
in ft cfs volt volt
Ccp-Rev Ccp-Rev Ccp-Rev Ccp-Rev Ccp-Rev
(America/Chicago)
03/13 00:00 0.00 10.47 255 12.89 12.34
03/13 01:00 0.00 10.47 255 12.86 12.34
03/13 02:00 0.00 10.44 251 12.83 12.33
03/13 03:00 0.00 10.42 247 12.80 12.30
03/13 04:00 0.00 10.40 244 12.77 12.26
03/13 05:00 0.00 10.38 241 12.75 12.23
03/13 06:00 0.00 10.36 238 12.71 12.19
03/13 07:00 0.00 10.34 235 12.68 12.17
03/13 08:00 0.00 10.33 233 12.82 12.14
03/13 09:00 0.00 10.31 230 13.45 13.03
03/13 10:00 0.00 10.30 229 13.54 13.03
03/13 11:00 0.00 10.28 226 13.55 13.13
03/13 12:00 0.00 10.26 223 13.54 13.16
03/13 13:00 0.00 10.25 222 13.55 13.13
03/13 14:00 0.00 10.23 219 13.53 13.09
03/13 15:00 0.00 10.23 219 13.55 13.07
03/13 16:00 0.00 10.16 209 13.53 13.05
03/13 17:00 0.00 10.19 213 13.52 12.99
03/13 18:00 0.00 10.18 212 13.80 13.17
03/13 19:00 0.00 10.17 210 13.49 13.01
03/13 20:00 0.00 10.16 209 13.14 12.68
03/13 21:00 0.00 10.15 207 12.99 12.48
03/13 22:00 0.00 10.14 206 12.93 12.40
03/13 23:00 0.00 10.12 203 12.90 12.37
Data processed at Sat 14Mar2026 04:43 GMT

NOTICE: If you are parsing this page

Please convert to using our Data API. Starting early 2026 we will be migrating to: https://water.usace.army.mil with modern pages rendered in JavaScript. When this migration completes you will no longer be able to scrape this page! CWMSDataAPI (CDA)

Timeseries IDs (TSIDs)

TSIDs used from left to right in the data table
CAME.Precip-Inc.Total.1Hour.1Hour.Ccp-Rev
CAME.Stage.Inst.1Hour.0.Ccp-Rev
CAME.Flow.Inst.1Hour.0.Ccp-Rev
CAME.Volt-Battery.Inst.1Hour.0.Ccp-Rev
CAME.Volt-Battery Load.Inst.1Hour.0.Ccp-Rev

                            

All information presented herein is the property of the government of the United States of America and may be revised or deleted at any time without prior notice. Dissemination of this information without the expressed written consent of the Public Affairs Office, Tulsa District U.S. Army Corps of Engineers is strictly prohibited. These data are gathered electronically and, as presented, have NOT undergone any form of quality control. These data are NOT guaranteed to be valid or correct.